Terminal Aerodrome Forecast
Issued by NWS Jackson, MS

Home | Current Version | Previous Version | Text Only | Print | Product List | Glossary On
Versions: 1 2 3 4 5 6 7 8 9 10 11 12 13 14 15 16 17 18
000
FTUS44 KJAN 042300
TAFMEI
TAF
KMEI 042327Z 0500/0524 20011KT P6SM VCSH FEW050 SCT100
     FM050300 19007KT P6SM VCSH SCT020 BKN025
     FM050500 34015G20KT 5SM -RA BR OVC007
     FM051700 36020G26KT 6SM -FZRA BR BKN007 OVC015
     FM052100 35017KT P6SM OVC007=

USA.gov is the U.S. government's official web portal to all federal, state and local government web resources and services.